Warning: Javascript must be enabled to use all the features on this page!


Page Loading - Please Wait...

* We've detected you're using a mobile device. Find our Next Generation Station Page here.
Click to hideNews Bulletins

Peak Streamflow for the Nation

USGS 06935980 Cowmire Creek at Bridgeton, MO

St. Louis County, Missouri
Hydrologic Unit Code 10300200
Latitude  38°45'51.4", Longitude  90°25'58.02" NAD83
Drainage area 3.74  square miles
Gage datum 464.22 feet above NAVD88
Output formats
Table
Graph
Tab-separated file
peakfq (watstore) format
Reselect output format
Water
Year
Date Gage
Height
(feet)
Stream-
flow
(cfs)
1972 1972-09-07 10.40 950
1973 1973-07-23 10.38 945
1974 1974-05-30 11.42 1,200
1975 1975-06-16 11.91 1,330
1976 1976-03-04 8.66 549
1977 1977-03-28 10.77 1,040
1978 1978-05-25 12.48 1,590
1979 1979-04-11 13.86 2,500
1998 1998-07-30 13.90 2,460
1999 1999-07-09 13.86 2,440
2000 2000-02-18 12.72 1,980
2001 2001-06-27 13.02 2,090
2002 2002-08-06 15.05 2,990
2003 2003-06-10 16.04 3,490
2004 2004-05-27 13.14 2,140
2005 2005-01-12 13.99 2,500
2006 2005-11-28 11.05 1,390
2007 2007-07-19 9.37 910
2008 2008-09-14 16.20 3,580
2009 2008-12-27 12.22 1,810
2010 2009-10-30 11.35 1,510
2011 2011-04-19 11.70 1,620
2012 2012-04-29 9.44 954
2013 2013-07-30 10.99 1,390
2014 2014-08-07 12.79 2,010
2015 2015-07-01 15.92 3,430
2016 2015-12-26 12.57 1,930
2017 2017-04-05 10.64 1,290
2018 2017-10-10 10.60 1,280
2019 2019-07-22 14.05 2,520
2020 2020-08-09 11.05 1,410
2021 2021-07-10 13.19 2,170
2022 2022-07-26 18.99 5,260
2023 2023-08-05 8.19 677